Time;durP1;ratioP1;P1;durP2;ratioP2;P2;SDS_P1;SDS_P2;PMS_P1;PMS_P2;Temp;Humidity;BMP_temperature;BMP_pressure;BME280_temperature;BME280_humidity;BME280_pressure;Samples;Min_cycle;Max_cycle;Signal;HPM_P1;HPM_P2
2022/05/02 00:00:18;;;;;;;1.85;1.70;;;;;;;;;;4961361;29;20208;-62
2022/05/02 00:02:47;;;;;;;2.00;1.90;;;;;;;;;;4961039;29;20231;-62
2022/05/02 00:05:14;;;;;;;1.98;1.77;;;;;;;;;;4961282;29;20201;-62
2022/05/02 00:07:42;;;;;;;1.98;1.88;;;;;;;;;;4961174;29;20204;-62
2022/05/02 00:10:09;;;;;;;1.98;1.88;;;;;;;;;;4961238;29;20494;-62
2022/05/02 00:12:37;;;;;;;1.90;1.80;;;;;;;;;;4942546;29;20460;-62
2022/05/02 00:15:05;;;;;;;1.90;1.80;;;;;;;;;;4947415;29;20251;-62
2022/05/02 00:20:18;;;;;;;1.90;1.80;;;;;;;;;;4941878;29;20653;-62
2022/05/02 00:22:46;;;;;;;1.83;1.73;;;;;;;;;;4942105;29;20209;-62
2022/05/02 00:25:13;;;;;;;1.85;1.75;;;;;;;;;;4942235;29;20260;-61
2022/05/02 00:27:41;;;;;;;1.92;1.73;;;;;;;;;;4950956;29;20637;-62
2022/05/02 00:30:09;;;;;;;1.85;1.75;;;;;;;;;;4960848;29;20219;-62
2022/05/02 00:32:37;;;;;;;1.90;1.80;;;;;;;;;;4960851;28;20259;-62
2022/05/02 00:35:04;;;;;;;1.70;1.60;;;;;;;;;;4961148;29;20208;-62
2022/05/02 00:37:33;;;;;;;1.70;1.60;;;;;;;;;;4955877;29;20672;-62
2022/05/02 00:40:01;;;;;;;1.95;1.85;;;;;;;;;;4948300;29;20215;-62
2022/05/02 00:42:28;;;;;;;1.70;1.60;;;;;;;;;;4960619;29;20228;-62
2022/05/02 00:44:56;;;;;;;1.90;1.80;;;;;;;;;;4960819;29;20204;-62
2022/05/02 00:47:23;;;;;;;1.73;1.63;;;;;;;;;;4946371;29;20205;-62
2022/05/02 00:49:51;;;;;;;1.70;1.60;;;;;;;;;;4950463;29;20204;-62
2022/05/02 00:52:19;;;;;;;1.70;1.60;;;;;;;;;;4960192;29;20220;-63
2022/05/02 00:54:48;;;;;;;1.90;1.80;;;;;;;;;;4960580;29;20208;-62
2022/05/02 00:57:16;;;;;;;1.75;1.65;;;;;;;;;;4960276;29;20224;-62
2022/05/02 00:59:43;;;;;;;1.70;1.60;;;;;;;;;;4952240;29;20205;-62
2022/05/02 01:02:12;;;;;;;1.77;1.67;;;;;;;;;;4953988;29;20208;-62
2022/05/02 01:04:40;;;;;;;1.63;1.52;;;;;;;;;;4958563;29;20204;-62
2022/05/02 01:07:10;;;;;;;1.75;1.65;;;;;;;;;;4959477;29;20507;-62
2022/05/02 01:09:38;;;;;;;1.80;1.70;;;;;;;;;;4953153;29;20283;-62
2022/05/02 01:12:08;;;;;;;1.55;1.45;;;;;;;;;;4941381;29;20216;-62
2022/05/02 01:14:36;;;;;;;1.60;1.50;;;;;;;;;;4940825;29;20252;-62
2022/05/02 01:17:03;;;;;;;1.70;1.60;;;;;;;;;;4947905;29;20229;-62
2022/05/02 01:19:31;;;;;;;1.70;1.60;;;;;;;;;;4946107;29;20200;-62
2022/05/02 01:22:00;;;;;;;1.80;1.70;;;;;;;;;;4957982;29;20223;-62
2022/05/02 01:24:35;;;;;;;1.60;1.50;;;;;;;;;;4960251;29;20504;-62
2022/05/02 01:27:02;;;;;;;2.38;1.52;;;;;;;;;;4959265;29;20200;-62
2022/05/02 01:29:31;;;;;;;1.60;1.50;;;;;;;;;;4952577;29;20205;-62
2022/05/02 01:31:58;;;;;;;1.90;1.80;;;;;;;;;;4963017;28;20231;-62
2022/05/02 01:34:26;;;;;;;1.60;1.50;;;;;;;;;;4979835;28;20207;-62
2022/05/02 01:36:55;;;;;;;1.80;1.70;;;;;;;;;;4969016;28;20668;-62
2022/05/02 01:39:23;;;;;;;1.50;1.40;;;;;;;;;;4964799;28;20260;-62
2022/05/02 01:41:51;;;;;;;1.40;1.30;;;;;;;;;;4959613;28;20215;-62
2022/05/02 01:44:18;;;;;;;1.60;1.50;;;;;;;;;;4959830;28;20201;-62
2022/05/02 01:46:45;;;;;;;1.52;1.42;;;;;;;;;;4963348;28;20494;-62
2022/05/02 01:49:13;;;;;;;1.52;1.42;;;;;;;;;;4976141;28;20606;-63
2022/05/02 01:51:41;;;;;;;1.73;1.63;;;;;;;;;;4959806;28;20587;-62
2022/05/02 01:54:08;;;;;;;1.67;1.58;;;;;;;;;;4959809;28;20212;-62
2022/05/02 01:56:37;;;;;;;1.45;1.35;;;;;;;;;;4959634;28;20224;-62
2022/05/02 01:59:04;;;;;;;1.85;1.42;;;;;;;;;;4960618;28;20220;-62
2022/05/02 02:01:32;;;;;;;1.50;1.40;;;;;;;;;;4978557;28;20231;-62
2022/05/02 02:04:00;;;;;;;1.65;1.55;;;;;;;;;;4978989;28;20267;-62
2022/05/02 02:06:27;;;;;;;1.60;1.50;;;;;;;;;;4978039;28;20228;-62
2022/05/02 02:08:55;;;;;;;1.75;1.65;;;;;;;;;;4969282;28;20514;-62
2022/05/02 02:11:23;;;;;;;1.80;1.70;;;;;;;;;;4975770;28;20203;-62
2022/05/02 02:13:51;;;;;;;1.50;1.40;;;;;;;;;;4975167;28;20224;-63
2022/05/02 02:16:19;;;;;;;1.60;1.50;;;;;;;;;;4959293;29;20235;-62
2022/05/02 02:18:46;;;;;;;1.60;1.50;;;;;;;;;;4959314;29;20208;-62
2022/05/02 02:21:14;;;;;;;1.48;1.38;;;;;;;;;;4959509;29;20329;-62
2022/05/02 02:23:43;;;;;;;1.60;1.50;;;;;;;;;;4959506;29;20470;-62
2022/05/02 02:26:10;;;;;;;1.77;1.67;;;;;;;;;;4963733;28;20196;-62
2022/05/02 02:28:39;;;;;;;1.60;1.50;;;;;;;;;;4978548;28;20211;-62
2022/05/02 02:31:08;;;;;;;1.50;1.40;;;;;;;;;;4973317;28;20236;-62
2022/05/02 02:33:37;;;;;;;1.77;1.67;;;;;;;;;;4959320;29;20213;-62
2022/05/02 02:36:05;;;;;;;1.70;1.60;;;;;;;;;;4958505;29;20243;-62
2022/05/02 02:38:32;;;;;;;1.27;1.20;;;;;;;;;;4958976;29;20617;-62
2022/05/02 02:40:59;;;;;;;1.58;1.48;;;;;;;;;;4948621;29;20211;-62
2022/05/02 02:43:26;;;;;;;1.55;1.45;;;;;;;;;;4954604;29;20201;-62
2022/05/02 02:45:54;;;;;;;1.40;1.30;;;;;;;;;;4943236;29;20586;-62
2022/05/02 02:48:23;;;;;;;1.55;1.45;;;;;;;;;;4958216;29;20223;-62
2022/05/02 02:50:50;;;;;;;1.27;1.20;;;;;;;;;;4943530;29;20230;-62
2022/05/02 02:53:18;;;;;;;1.20;1.20;;;;;;;;;;4939250;29;20208;-62
2022/05/02 02:55:45;;;;;;;1.35;1.25;;;;;;;;;;4939563;29;20297;-62
2022/05/02 02:58:13;;;;;;;1.20;1.20;;;;;;;;;;4939775;29;20221;-62
2022/05/02 03:00:40;;;;;;;1.23;1.13;;;;;;;;;;4950786;29;20205;-62
2022/05/02 03:03:08;;;;;;;1.48;1.38;;;;;;;;;;4958497;29;20222;-62
2022/05/02 03:08:22;;;;;;;1.40;1.30;;;;;;;;;;4956849;29;20498;-62
2022/05/02 03:10:49;;;;;;;1.30;1.20;;;;;;;;;;4943118;29;20602;-62
2022/05/02 03:13:17;;;;;;;1.42;1.17;;;;;;;;;;4939390;29;20209;-62
2022/05/02 03:15:44;;;;;;;1.42;1.33;;;;;;;;;;4939245;29;20205;-62
2022/05/02 03:18:12;;;;;;;1.33;1.23;;;;;;;;;;4954596;29;20597;-62
2022/05/02 03:20:40;;;;;;;1.50;1.40;;;;;;;;;;4952118;29;20211;-63
2022/05/02 03:23:08;;;;;;;1.00;1.00;;;;;;;;;;4958259;29;20208;-62
2022/05/02 03:25:36;;;;;;;1.17;1.17;;;;;;;;;;4956858;29;20220;-62
2022/05/02 03:28:03;;;;;;;1.27;1.17;;;;;;;;;;4939145;29;20204;-62
2022/05/02 03:30:30;;;;;;;1.10;1.10;;;;;;;;;;4949383;29;20212;-62
2022/05/02 03:32:58;;;;;;;1.27;1.17;;;;;;;;;;4958181;28;20233;-62
2022/05/02 03:35:25;;;;;;;1.40;1.30;;;;;;;;;;4957496;28;20212;-62
2022/05/02 03:37:54;;;;;;;1.40;1.30;;;;;;;;;;4958207;29;20299;-62
2022/05/02 03:40:22;;;;;;;1.25;1.15;;;;;;;;;;4967453;28;20250;-62
2022/05/02 03:42:50;;;;;;;1.40;1.30;;;;;;;;;;4972630;28;20235;-62
2022/05/02 03:45:17;;;;;;;1.45;1.35;;;;;;;;;;4959590;28;20240;-62
2022/05/02 03:47:44;;;;;;;1.30;1.20;;;;;;;;;;4957960;28;20602;-63
2022/05/02 03:50:12;;;;;;;1.17;1.08;;;;;;;;;;4966474;28;20219;-62
2022/05/02 03:52:40;;;;;;;1.40;1.30;;;;;;;;;;4976753;28;20207;-62
2022/05/02 03:55:09;;;;;;;1.23;1.13;;;;;;;;;;4976860;28;20207;-62
2022/05/02 03:57:36;;;;;;;1.38;1.30;;;;;;;;;;4975918;28;20224;-62
2022/05/02 04:00:04;;;;;;;1.20;1.20;;;;;;;;;;4969475;28;20205;-62
2022/05/02 04:02:31;;;;;;;1.17;1.17;;;;;;;;;;4957351;28;20763;-62
2022/05/02 04:04:59;;;;;;;1.10;1.10;;;;;;;;;;4963296;28;20204;-62
2022/05/02 04:07:27;;;;;;;1.40;1.30;;;;;;;;;;4975463;28;20216;-62
2022/05/02 04:09:54;;;;;;;1.38;1.30;;;;;;;;;;4965266;28;20491;-62
2022/05/02 04:12:23;;;;;;;1.25;1.15;;;;;;;;;;4976462;28;20231;-62
2022/05/02 04:14:50;;;;;;;1.33;1.23;;;;;;;;;;4962862;28;20204;-62
2022/05/02 04:17:18;;;;;;;1.15;1.05;;;;;;;;;;4956755;29;20231;-62
2022/05/02 04:19:45;;;;;;;1.10;1.00;;;;;;;;;;4956561;29;20212;-62
2022/05/02 04:22:13;;;;;;;1.35;1.25;;;;;;;;;;4957985;28;20258;-62
2022/05/02 04:24:40;;;;;;;1.13;1.10;;;;;;;;;;4959259;29;20208;-62
2022/05/02 04:27:07;;;;;;;1.13;1.10;;;;;;;;;;4974656;28;20203;-62
2022/05/02 04:29:36;;;;;;;1.30;1.23;;;;;;;;;;4979121;28;20215;-62
2022/05/02 04:32:04;;;;;;;1.27;1.17;;;;;;;;;;4967468;28;20232;-62
2022/05/02 04:34:31;;;;;;;1.05;1.05;;;;;;;;;;4959821;29;20219;-62
2022/05/02 04:36:59;;;;;;;1.27;1.17;;;;;;;;;;4959673;29;20625;-62
2022/05/02 04:39:26;;;;;;;1.25;1.20;;;;;;;;;;4950179;29;20216;-62
2022/05/02 04:41:53;;;;;;;1.23;1.20;;;;;;;;;;4940612;29;20232;-62
2022/05/02 04:44:21;;;;;;;1.52;1.20;;;;;;;;;;4939679;29;20217;-62
2022/05/02 04:46:50;;;;;;;1.33;1.23;;;;;;;;;;4939729;29;20228;-62
2022/05/02 04:49:18;;;;;;;1.10;1.10;;;;;;;;;;4955593;29;20204;-62
2022/05/02 04:51:45;;;;;;;1.40;1.30;;;;;;;;;;4946570;29;20204;-62
2022/05/02 04:54:12;;;;;;;1.00;1.00;;;;;;;;;;4938777;29;20205;-62
2022/05/02 04:56:40;;;;;;;1.20;1.20;;;;;;;;;;4940152;29;20221;-62
2022/05/02 04:59:07;;;;;;;1.33;1.23;;;;;;;;;;4952737;29;20204;-62
2022/05/02 05:01:35;;;;;;;1.08;1.08;;;;;;;;;;4957042;29;20196;-62
2022/05/02 05:04:04;;;;;;;1.40;1.30;;;;;;;;;;4956872;29;20211;-62
2022/05/02 05:06:31;;;;;;;1.40;1.30;;;;;;;;;;4957070;29;20204;-62
2022/05/02 05:08:58;;;;;;;2.35;1.38;;;;;;;;;;4941489;29;20216;-62
2022/05/02 05:11:32;;;;;;;1.20;1.10;;;;;;;;;;4937406;29;20209;-62
2022/05/02 05:16:55;;;;;;;1.00;1.00;;;;;;;;;;4936391;29;20525;-62
2022/05/02 05:19:32;;;;;;;2.05;1.15;;;;;;;;;;4952286;29;20223;-62
2022/05/02 05:22:05;;;;;;;1.10;1.10;;;;;;;;;;4943098;29;20219;-62
2022/05/02 05:24:50;;;;;;;1.10;1.10;;;;;;;;;;4946441;29;20551;-62
2022/05/02 05:27:25;;;;;;;1.45;1.20;;;;;;;;;;4936785;29;20216;-62
2022/05/02 05:29:59;;;;;;;1.45;1.20;;;;;;;;;;4954263;29;20208;-62
2022/05/02 05:32:30;;;;;;;1.50;1.40;;;;;;;;;;5448995;23;20277;-62
2022/05/02 05:35:05;;;;;;;1.40;1.17;;;;;;;;;;4990783;28;20265;-61
2022/05/02 05:37:51;;;;;;;1.50;1.40;;;;;;;;;;4991211;28;20218;-61
2022/05/02 05:40:21;;;;;;;1.10;1.10;;;;;;;;;;4990550;28;20199;-61
2022/05/02 05:42:55;;;;;;;1.30;1.20;;;;;;;;;;4988651;28;20204;-61
2022/05/02 05:45:28;;;;;;;1.42;1.33;;;;;;;;;;4973437;28;20338;-61
2022/05/02 05:48:02;;;;;;;1.20;1.20;;;;;;;;;;4972625;28;20215;-61
2022/05/02 05:50:33;;;;;;;1.38;1.27;;;;;;;;;;4972751;28;20204;-61
2022/05/02 05:53:08;;;;;;;1.50;1.40;;;;;;;;;;4976558;28;20202;-61
2022/05/02 05:55:46;;;;;;;1.60;1.50;;;;;;;;;;4984769;28;20205;-61
2022/05/02 05:58:16;;;;;;;1.20;1.20;;;;;;;;;;4991870;28;20276;-61
2022/05/02 06:00:45;;;;;;;1.30;1.20;;;;;;;;;;4989487;28;20274;-61
2022/05/02 06:03:14;;;;;;;1.35;1.25;;;;;;;;;;4984969;28;20218;-61
2022/05/02 06:05:44;;;;;;;1.20;1.10;;;;;;;;;;4992049;28;20202;-61
2022/05/02 06:08:12;;;;;;;1.20;1.15;;;;;;;;;;4991461;28;20199;-61
2022/05/02 06:10:40;;;;;;;1.30;1.20;;;;;;;;;;4990213;28;20195;-62
2022/05/02 06:13:09;;;;;;;1.10;1.10;;;;;;;;;;4993169;28;20226;-61
2022/05/02 06:18:30;;;;;;;1.83;1.15;;;;;;;;;;4975891;28;20230;-61
2022/05/02 06:20:59;;;;;;;3.10;1.27;;;;;;;;;;4969350;28;20221;-61
2022/05/02 06:23:29;;;;;;;2.70;1.50;;;;;;;;;;4976733;28;20212;-61
2022/05/02 06:25:57;;;;;;;2.40;1.20;;;;;;;;;;4976234;28;20208;-61
2022/05/02 06:28:28;;;;;;;2.05;1.30;;;;;;;;;;4994136;28;20206;-61
2022/05/02 06:30:58;;;;;;;2.22;1.20;;;;;;;;;;4995784;28;20203;-61
2022/05/02 06:33:25;;;;;;;2.45;1.00;;;;;;;;;;4975005;28;20628;-61
2022/05/02 06:36:07;;;;;;;1.40;1.30;;;;;;;;;;4956095;28;20219;-61
2022/05/02 06:38:43;;;;;;;1.52;1.30;;;;;;;;;;4967477;28;20227;-61
2022/05/02 06:41:17;;;;;;;1.40;1.30;;;;;;;;;;4972276;28;20203;-61
2022/05/02 06:43:51;;;;;;;2.78;1.40;;;;;;;;;;4965998;28;20207;-62
2022/05/02 06:46:20;;;;;;;2.65;1.20;;;;;;;;;;4955899;29;20493;-61
2022/05/02 06:48:51;;;;;;;2.15;1.30;;;;;;;;;;4955665;28;20200;-61
2022/05/02 06:51:24;;;;;;;1.13;1.00;;;;;;;;;;4963650;28;20597;-61
2022/05/02 06:54:12;;;;;;;2.17;1.33;;;;;;;;;;4962294;28;20255;-61
2022/05/02 06:56:43;;;;;;;2.25;1.20;;;;;;;;;;4953187;28;20300;-61
2022/05/02 06:59:17;;;;;;;1.88;1.40;;;;;;;;;;4971522;28;20207;-61
2022/05/02 07:01:49;;;;;;;3.10;1.23;;;;;;;;;;4971069;28;20215;-61
2022/05/02 07:04:28;;;;;;;1.40;1.30;;;;;;;;;;4957881;28;20208;-61
2022/05/02 07:07:04;;;;;;;1.40;1.25;;;;;;;;;;4953357;28;20214;-61
2022/05/02 07:09:33;;;;;;;2.05;1.40;;;;;;;;;;4955137;28;20207;-61
2022/05/02 07:12:11;;;;;;;2.08;1.40;;;;;;;;;;4967780;28;20236;-61
2022/05/02 07:14:46;;;;;;;1.13;1.10;;;;;;;;;;4968692;28;20232;-61
2022/05/02 07:17:20;;;;;;;1.38;1.27;;;;;;;;;;4972718;28;20616;-61
2022/05/02 07:19:54;;;;;;;2.60;1.55;;;;;;;;;;4952596;28;20235;-61
2022/05/02 07:22:28;;;;;;;1.58;1.40;;;;;;;;;;4968478;28;20206;-61
2022/05/02 07:25:00;;;;;;;1.35;1.10;;;;;;;;;;4968761;28;20230;-61
2022/05/02 07:27:38;;;;;;;1.90;1.30;;;;;;;;;;4952969;29;20231;-61
2022/05/02 07:30:06;;;;;;;1.58;1.30;;;;;;;;;;4962606;28;20366;-61
2022/05/02 07:32:33;;;;;;;1.20;1.10;;;;;;;;;;4970110;28;20401;-61
2022/05/02 07:35:01;;;;;;;1.27;1.17;;;;;;;;;;4971165;28;20219;-61
2022/05/02 07:37:31;;;;;;;1.52;1.35;;;;;;;;;;4970747;28;20258;-61
2022/05/02 07:39:59;;;;;;;1.40;1.30;;;;;;;;;;4963962;28;20450;-61
2022/05/02 07:42:31;;;;;;;1.83;1.33;;;;;;;;;;4959357;28;20204;-61
2022/05/02 07:45:01;;;;;;;1.88;1.23;;;;;;;;;;4954701;28;20379;-61
2022/05/02 07:47:29;;;;;;;1.35;1.20;;;;;;;;;;4967642;28;20232;-61
2022/05/02 07:49:57;;;;;;;2.78;1.30;;;;;;;;;;4953103;28;20215;-61
2022/05/02 07:52:25;;;;;;;1.35;1.25;;;;;;;;;;4955078;28;20215;-61
2022/05/02 07:54:56;;;;;;;3.15;1.58;;;;;;;;;;4958691;28;20215;-61
2022/05/02 07:57:25;;;;;;;1.67;1.27;;;;;;;;;;4973221;28;20231;-61
2022/05/02 07:59:53;;;;;;;1.73;1.63;;;;;;;;;;4955085;28;20205;-61
2022/05/02 08:02:21;;;;;;;1.45;1.35;;;;;;;;;;4964764;28;20567;-61
2022/05/02 08:04:49;;;;;;;1.52;1.42;;;;;;;;;;4974743;28;20204;-62
2022/05/02 08:07:19;;;;;;;1.40;1.30;;;;;;;;;;4973833;28;20206;-61
2022/05/02 08:10:05;;;;;;;1.70;1.60;;;;;;;;;;4963101;28;20207;-61
2022/05/02 08:12:37;;;;;;;1.40;1.30;;;;;;;;;;4975368;28;20222;-61
2022/05/02 08:15:08;;;;;;;1.75;1.50;;;;;;;;;;4960161;28;20299;-61
2022/05/02 08:17:48;;;;;;;1.83;1.60;;;;;;;;;;4956659;29;20263;-61
2022/05/02 08:20:23;;;;;;;1.90;1.60;;;;;;;;;;4955476;29;20205;-61
2022/05/02 08:28:33;;;;;;;1.42;1.33;;;;;;;;;;4975552;28;20203;-61
2022/05/02 08:31:03;;;;;;;1.40;1.30;;;;;;;;;;4976058;28;20215;-61
2022/05/02 08:33:31;;;;;;;1.70;1.60;;;;;;;;;;4975325;28;20235;-61
2022/05/02 08:35:59;;;;;;;1.52;1.33;;;;;;;;;;4975352;28;20426;-61
2022/05/02 08:38:48;;;;;;;1.63;1.52;;;;;;;;;;4959464;28;20239;-61
2022/05/02 08:41:43;;;;;;;1.58;1.48;;;;;;;;;;4974925;28;20585;-61
2022/05/02 08:44:27;;;;;;;1.40;1.30;;;;;;;;;;4964544;28;20204;-62
2022/05/02 08:47:09;;;;;;;2.08;1.45;;;;;;;;;;4956421;29;20315;-61
2022/05/02 08:49:45;;;;;;;1.40;1.30;;;;;;;;;;4956792;28;20204;-61
2022/05/02 08:52:36;;;;;;;1.70;1.60;;;;;;;;;;4955945;28;20226;-61
2022/05/02 08:55:10;;;;;;;1.73;1.42;;;;;;;;;;4957745;28;20244;-61
2022/05/02 08:57:53;;;;;;;1.77;1.60;;;;;;;;;;4957362;28;20215;-61
2022/05/02 09:00:27;;;;;;;1.90;1.50;;;;;;;;;;4926474;28;20203;-61
2022/05/02 09:03:13;;;;;;;1.70;1.40;;;;;;;;;;4975242;28;20226;-61
2022/05/02 09:05:47;;;;;;;1.58;1.48;;;;;;;;;;4939154;28;20200;-61
2022/05/02 09:08:33;;;;;;;2.17;1.52;;;;;;;;;;4954951;28;20199;-61
2022/05/02 09:11:12;;;;;;;1.63;1.52;;;;;;;;;;4956709;29;20215;-61
2022/05/02 09:13:59;;;;;;;1.63;1.52;;;;;;;;;;4960290;28;20585;-61
2022/05/02 09:16:50;;;;;;;1.67;1.58;;;;;;;;;;4973766;28;20609;-62
2022/05/02 09:19:32;;;;;;;1.73;1.63;;;;;;;;;;4942716;28;20235;-61
2022/05/02 09:22:15;;;;;;;1.50;1.40;;;;;;;;;;4974632;28;20481;-61
2022/05/02 09:24:52;;;;;;;1.73;1.45;;;;;;;;;;4959567;28;20574;-61
2022/05/02 09:27:34;;;;;;;1.70;1.60;;;;;;;;;;4955959;28;20223;-61
2022/05/02 09:30:14;;;;;;;1.63;1.50;;;;;;;;;;4973604;28;20203;-61
2022/05/02 09:32:48;;;;;;;1.58;1.48;;;;;;;;;;4965528;28;20268;-61
2022/05/02 09:35:19;;;;;;;1.77;1.65;;;;;;;;;;4970757;28;20218;-61
2022/05/02 09:37:56;;;;;;;1.70;1.60;;;;;;;;;;4956751;28;20668;-61
2022/05/02 09:40:27;;;;;;;1.45;1.35;;;;;;;;;;4953987;29;20565;-61
2022/05/02 09:42:58;;;;;;;1.75;1.65;;;;;;;;;;4954364;28;20204;-61
2022/05/02 09:51:19;;;;;;;2.08;1.90;;;;;;;;;;4971303;28;20554;-61
2022/05/02 09:53:56;;;;;;;2.00;1.80;;;;;;;;;;4967483;28;20214;-61
2022/05/02 09:59:23;;;;;;;1.60;1.50;;;;;;;;;;4935461;29;20232;-61
2022/05/02 10:01:52;;;;;;;2.05;1.80;;;;;;;;;;4965911;28;20213;-61
2022/05/02 10:04:32;;;;;;;1.92;1.80;;;;;;;;;;4967606;28;20196;-61
2022/05/02 10:07:05;;;;;;;1.90;1.80;;;;;;;;;;4960635;28;20222;-62
2022/05/02 10:09:40;;;;;;;2.05;1.88;;;;;;;;;;4963680;28;20204;-62
2022/05/02 10:12:18;;;;;;;2.00;1.80;;;;;;;;;;4953303;29;20208;-61
2022/05/02 10:14:56;;;;;;;2.00;1.90;;;;;;;;;;4964672;28;20287;-61
2022/05/02 10:17:33;;;;;;;2.05;1.92;;;;;;;;;;4972875;28;20215;-61
2022/05/02 10:20:13;;;;;;;2.28;1.80;;;;;;;;;;4957633;28;20290;-61
2022/05/02 10:22:52;;;;;;;1.80;1.70;;;;;;;;;;4951415;28;20465;-61
2022/05/02 10:25:26;;;;;;;2.53;1.85;;;;;;;;;;4952601;29;20481;-61
2022/05/02 10:28:09;;;;;;;2.10;2.00;;;;;;;;;;4945695;28;20511;-61
2022/05/02 10:30:54;;;;;;;2.10;1.90;;;;;;;;;;4952888;28;20197;-61
2022/05/02 10:33:25;;;;;;;1.95;1.75;;;;;;;;;;4979657;28;20235;-61
2022/05/02 10:35:53;;;;;;;2.45;2.25;;;;;;;;;;4986841;28;20210;-61
2022/05/02 10:38:29;;;;;;;2.00;1.90;;;;;;;;;;4975945;28;20223;-62
2022/05/02 10:40:59;;;;;;;2.30;2.20;;;;;;;;;;4971990;28;20281;-61
2022/05/02 10:43:26;;;;;;;2.15;2.00;;;;;;;;;;4971982;28;20211;-61
2022/05/02 10:45:54;;;;;;;2.13;1.92;;;;;;;;;;4963278;28;20204;-61
2022/05/02 10:48:29;;;;;;;2.25;2.05;;;;;;;;;;4978173;28;20287;-61
2022/05/02 10:51:05;;;;;;;2.22;2.13;;;;;;;;;;4991783;28;20459;-61
2022/05/02 10:54:06;;;;;;;2.22;2.10;;;;;;;;;;4990292;28;20265;-62
2022/05/02 10:56:36;;;;;;;2.10;2.00;;;;;;;;;;4990759;28;20195;-61
2022/05/02 10:59:06;;;;;;;2.85;2.13;;;;;;;;;;4988310;28;20443;-61
2022/05/02 11:01:45;;;;;;;2.30;2.10;;;;;;;;;;4991693;28;20218;-61
2022/05/02 11:04:20;;;;;;;2.20;2.00;;;;;;;;;;4974837;28;20212;-61
2022/05/02 11:06:56;;;;;;;2.05;1.95;;;;;;;;;;4972106;28;20588;-61
2022/05/02 11:09:27;;;;;;;2.38;2.17;;;;;;;;;;4987782;28;20206;-61
2022/05/02 11:11:56;;;;;;;2.45;2.25;;;;;;;;;;4990920;28;20206;-61
2022/05/02 11:14:31;;;;;;;2.38;2.20;;;;;;;;;;4991258;28;20198;-61
2022/05/02 11:17:06;;;;;;;2.28;2.08;;;;;;;;;;4991242;28;20257;-61
2022/05/02 11:22:25;;;;;;;2.50;2.30;;;;;;;;;;4935116;28;20230;-61
2022/05/02 11:25:01;;;;;;;2.30;2.13;;;;;;;;;;4971837;28;20204;-61
2022/05/02 11:27:39;;;;;;;2.42;2.25;;;;;;;;;;4972092;28;20211;-62
2022/05/02 11:30:07;;;;;;;2.47;2.28;;;;;;;;;;4971133;28;20199;-62
2022/05/02 11:32:52;;;;;;;2.67;2.47;;;;;;;;;;4973484;28;20279;-61
2022/05/02 11:35:24;;;;;;;2.50;2.30;;;;;;;;;;4962138;28;20199;-61
2022/05/02 11:37:55;;;;;;;2.85;2.65;;;;;;;;;;4978728;28;20588;-61
2022/05/02 11:40:27;;;;;;;2.60;2.40;;;;;;;;;;4975881;28;20230;-61
2022/05/02 11:42:57;;;;;;;2.63;2.42;;;;;;;;;;4975549;28;20403;-61
2022/05/02 11:45:29;;;;;;;2.35;2.22;;;;;;;;;;4993793;28;20253;-61
2022/05/02 11:48:05;;;;;;;2.50;2.40;;;;;;;;;;4990124;28;20207;-61
2022/05/02 11:50:41;;;;;;;2.30;2.20;;;;;;;;;;4974169;28;20266;-61
2022/05/02 11:53:13;;;;;;;2.35;2.25;;;;;;;;;;4974752;28;20389;-61
2022/05/02 11:55:41;;;;;;;2.88;2.67;;;;;;;;;;4974375;28;20784;-61
2022/05/02 11:58:15;;;;;;;2.80;2.60;;;;;;;;;;4978837;28;20199;-61
2022/05/02 12:00:44;;;;;;;2.85;2.65;;;;;;;;;;4992752;28;20214;-62
2022/05/02 12:03:13;;;;;;;2.63;2.42;;;;;;;;;;4992374;28;20463;-61
2022/05/02 12:05:41;;;;;;;2.88;2.60;;;;;;;;;;4993841;28;20490;-61
2022/05/02 12:08:09;;;;;;;2.72;2.53;;;;;;;;;;4988858;28;20202;-62
2022/05/02 12:10:38;;;;;;;2.70;2.50;;;;;;;;;;4983649;28;20191;-61
2022/05/02 12:13:06;;;;;;;2.85;2.65;;;;;;;;;;4994796;28;20218;-61
2022/05/02 12:15:35;;;;;;;2.33;2.22;;;;;;;;;;4976332;28;20368;-61
2022/05/02 12:18:06;;;;;;;2.55;2.40;;;;;;;;;;4975456;28;20613;-62
2022/05/02 12:20:34;;;;;;;2.80;2.60;;;;;;;;;;4975210;28;20258;-61
2022/05/02 12:23:03;;;;;;;2.67;2.47;;;;;;;;;;4974676;28;20208;-61
2022/05/02 12:25:31;;;;;;;2.67;2.47;;;;;;;;;;4974689;28;20210;-62
2022/05/02 12:28:03;;;;;;;2.55;2.45;;;;;;;;;;4984813;28;20594;-61
2022/05/02 12:30:31;;;;;;;2.80;2.60;;;;;;;;;;4973506;28;20523;-61
2022/05/02 12:33:04;;;;;;;2.88;2.67;;;;;;;;;;4958614;28;20541;-61
2022/05/02 12:35:37;;;;;;;2.83;2.35;;;;;;;;;;4952910;29;20212;-61
2022/05/02 12:38:16;;;;;;;2.67;2.47;;;;;;;;;;4963010;28;20421;-61
2022/05/02 12:40:44;;;;;;;2.88;2.67;;;;;;;;;;4956026;28;20232;-61
2022/05/02 12:43:12;;;;;;;3.00;2.80;;;;;;;;;;4968457;28;20215;-61
2022/05/02 12:45:47;;;;;;;2.88;2.67;;;;;;;;;;4972571;28;20363;-61
2022/05/02 12:48:22;;;;;;;2.70;2.50;;;;;;;;;;4968407;28;20235;-61
2022/05/02 12:50:50;;;;;;;2.95;2.75;;;;;;;;;;4957687;28;20206;-61
2022/05/02 12:54:09;;;;;;;3.10;2.90;;;;;;;;;;4966080;28;20276;-61
2022/05/02 12:56:07;;;;;;;2.90;2.70;;;;;;;;;;4956033;28;20212;-61
2022/05/02 13:01:21;;;;;;;2.85;2.65;;;;;;;;;;4955229;29;20212;-61
2022/05/02 13:03:56;;;;;;;4.05;3.08;;;;;;;;;;4956441;28;20216;-61
2022/05/02 13:06:23;;;;;;;2.80;2.60;;;;;;;;;;4956797;29;20715;-61
2022/05/02 13:08:52;;;;;;;3.75;2.80;;;;;;;;;;4965670;28;20274;-61
2022/05/02 13:11:21;;;;;;;2.75;2.55;;;;;;;;;;4969805;28;20200;-61
2022/05/02 13:13:51;;;;;;;3.03;2.83;;;;;;;;;;4956624;28;20208;-61
2022/05/02 13:16:26;;;;;;;2.80;2.60;;;;;;;;;;4955847;29;20210;-61
2022/05/02 13:18:57;;;;;;;2.92;2.72;;;;;;;;;;4963070;28;20195;-61
2022/05/02 13:21:25;;;;;;;2.70;2.50;;;;;;;;;;4973839;28;20258;-61
2022/05/02 13:23:56;;;;;;;3.10;2.80;;;;;;;;;;4974005;28;20203;-61
2022/05/02 13:26:47;;;;;;;3.17;2.97;;;;;;;;;;4966489;28;20196;-61
2022/05/02 13:29:19;;;;;;;3.15;2.95;;;;;;;;;;4967999;28;20202;-61
2022/05/02 13:31:50;;;;;;;2.90;2.70;;;;;;;;;;4971830;28;20227;-61
2022/05/02 13:34:29;;;;;;;3.00;2.80;;;;;;;;;;4973337;28;20437;-61
2022/05/02 13:37:00;;;;;;;3.30;3.00;;;;;;;;;;4972260;28;20435;-61
2022/05/02 13:39:33;;;;;;;3.75;2.75;;;;;;;;;;4954979;28;20224;-61
2022/05/02 13:42:03;;;;;;;3.30;3.00;;;;;;;;;;4956090;28;20200;-61
2022/05/02 13:44:37;;;;;;;3.20;3.00;;;;;;;;;;4965802;28;20201;-61
2022/05/02 13:47:07;;;;;;;3.17;2.97;;;;;;;;;;4963909;28;20609;-61
2022/05/02 13:49:46;;;;;;;3.40;3.10;;;;;;;;;;4968927;28;20192;-61
2022/05/02 13:52:29;;;;;;;3.50;3.20;;;;;;;;;;4965686;28;20314;-61
2022/05/02 13:54:56;;;;;;;3.17;2.97;;;;;;;;;;4960628;28;20231;-61
2022/05/02 13:57:31;;;;;;;3.55;3.30;;;;;;;;;;4955777;28;20204;-61
2022/05/02 14:00:37;;;;;;;3.17;2.95;;;;;;;;;;4972561;28;20258;-61
2022/05/02 14:03:00;;;;;;;3.20;3.00;;;;;;;;;;4974529;28;20196;-63
2022/05/02 14:05:43;;;;;;;3.30;3.10;;;;;;;;;;4962850;28;20295;-61
2022/05/02 14:08:12;;;;;;;3.42;3.15;;;;;;;;;;4959240;28;20214;-61
2022/05/02 14:10:53;;;;;;;3.10;2.90;;;;;;;;;;4960571;28;20212;-61
2022/05/02 14:13:20;;;;;;;3.40;3.10;;;;;;;;;;4967519;28;20219;-61
2022/05/02 14:15:48;;;;;;;3.63;3.10;;;;;;;;;;4968273;28;20789;-61
2022/05/02 14:18:18;;;;;;;3.60;3.30;;;;;;;;;;4964094;28;20205;-61
2022/05/02 14:20:47;;;;;;;3.30;3.10;;;;;;;;;;4964097;28;20318;-61
2022/05/02 14:23:14;;;;;;;3.67;3.38;;;;;;;;;;4974815;28;20211;-61
2022/05/02 14:25:42;;;;;;;3.83;3.50;;;;;;;;;;4960162;28;20599;-61
2022/05/02 14:28:13;;;;;;;3.20;2.90;;;;;;;;;;4955458;29;20241;-61
2022/05/02 14:30:42;;;;;;;3.70;3.40;;;;;;;;;;4955678;29;20208;-61
2022/05/02 14:33:11;;;;;;;3.40;3.20;;;;;;;;;;4960718;28;20227;-61
2022/05/02 14:35:40;;;;;;;3.83;3.53;;;;;;;;;;4974939;28;20228;-61
2022/05/02 14:38:09;;;;;;;3.33;3.08;;;;;;;;;;4974350;28;20294;-61
2022/05/02 14:40:38;;;;;;;3.30;3.10;;;;;;;;;;4957442;28;20513;-61
2022/05/02 14:43:07;;;;;;;3.65;3.35;;;;;;;;;;4954703;28;20205;-61
2022/05/02 14:45:34;;;;;;;3.65;3.35;;;;;;;;;;4963740;28;20231;-61
2022/05/02 14:48:03;;;;;;;4.15;3.63;;;;;;;;;;4972061;28;20624;-61
2022/05/02 14:50:31;;;;;;;3.47;3.17;;;;;;;;;;4963158;28;20199;-60
2022/05/02 14:52:59;;;;;;;3.97;3.53;;;;;;;;;;4966558;28;20220;-60
2022/05/02 14:55:29;;;;;;;4.30;3.30;;;;;;;;;;4954345;29;20212;-61
2022/05/02 14:57:59;;;;;;;10.15;3.90;;;;;;;;;;4958897;28;20227;-60
2022/05/02 15:00:29;;;;;;;3.78;3.38;;;;;;;;;;4953773;28;20243;-60
2022/05/02 15:03:02;;;;;;;4.53;3.58;;;;;;;;;;4956201;28;20204;-60
2022/05/02 15:05:31;;;;;;;6.25;3.70;;;;;;;;;;4970122;28;20204;-60
2022/05/02 15:08:08;;;;;;;5.97;3.67;;;;;;;;;;4965276;28;20219;-61
2022/05/02 15:10:49;;;;;;;5.03;3.90;;;;;;;;;;4953587;29;20211;-60
2022/05/02 15:13:25;;;;;;;6.40;3.60;;;;;;;;;;4957546;28;20586;-60
2022/05/02 15:15:54;;;;;;;6.25;3.40;;;;;;;;;;4961289;28;20204;-60
2022/05/02 15:19:33;;;;;;;5.10;3.33;;;;;;;;;;4963648;28;20207;-60
2022/05/02 15:21:29;;;;;;;5.88;3.40;;;;;;;;;;4972553;28;20223;-60
2022/05/02 15:23:57;;;;;;;6.55;3.45;;;;;;;;;;4961773;28;20215;-60
2022/05/02 15:26:39;;;;;;;3.80;3.38;;;;;;;;;;4972564;28;20230;-60
2022/05/02 15:37:39;;;;;;;5.20;3.90;;;;;;;;;;4956648;28;20270;-60
2022/05/02 15:40:21;;;;;;;4.00;3.70;;;;;;;;;;4969460;28;20615;-60
2022/05/02 15:43:19;;;;;;;3.72;3.42;;;;;;;;;;4934340;28;20590;-61
2022/05/02 15:45:48;;;;;;;3.90;3.60;;;;;;;;;;4955406;28;20327;-61
2022/05/02 15:48:30;;;;;;;5.13;3.90;;;;;;;;;;4962819;28;20208;-61